createdAt,value
2018-12-06T00:00:03.341Z,45.60
2018-12-06T00:02:31.609Z,33.10
2018-12-06T00:04:59.534Z,28.20
2018-12-06T00:07:28.147Z,34.53
2018-12-06T00:09:56.275Z,38.07
2018-12-06T00:12:24.532Z,42.07
2018-12-06T00:14:56.922Z,32.73
2018-12-06T00:17:25.089Z,31.17
2018-12-06T00:19:53.761Z,34.30
2018-12-06T00:22:21.873Z,31.87
2018-12-06T00:24:50.122Z,33.37
2018-12-06T00:27:18.717Z,34.50
2018-12-06T00:29:51.109Z,36.70
2018-12-06T00:32:20.005Z,31.90
2018-12-06T00:34:47.921Z,25.60
2018-12-06T00:37:16.109Z,26.63
2018-12-06T00:39:44.256Z,29.37
2018-12-06T00:42:12.548Z,33.03
2018-12-06T00:44:40.835Z,36.57
2018-12-06T00:47:09.039Z,31.37
2018-12-06T00:49:37.220Z,29.67
2018-12-06T00:52:05.323Z,34.27
2018-12-06T00:54:33.476Z,33.47
2018-12-06T00:57:01.685Z,38.57
2018-12-06T00:59:29.899Z,30.60
2018-12-06T01:01:58.065Z,34.43
2018-12-06T01:04:26.259Z,34.90
2018-12-06T01:06:54.559Z,30.83
2018-12-06T01:09:22.601Z,36.00
2018-12-06T01:11:50.833Z,36.00
2018-12-06T01:14:21.127Z,32.17
2018-12-06T01:16:49.141Z,33.67
2018-12-06T01:19:17.310Z,32.30
2018-12-06T01:21:45.508Z,34.83
2018-12-06T01:24:13.810Z,37.23
2018-12-06T01:26:41.868Z,45.33
2018-12-06T01:29:10.144Z,38.57
2018-12-06T01:31:38.213Z,40.73
2018-12-06T01:34:06.485Z,33.83
2018-12-06T01:36:34.649Z,36.37
2018-12-06T01:39:03.125Z,31.83
2018-12-06T01:41:31.046Z,33.00
2018-12-06T01:43:59.264Z,40.40
2018-12-06T01:46:27.332Z,34.40
2018-12-06T01:48:55.517Z,34.57
2018-12-06T01:51:23.670Z,37.13
2018-12-06T01:53:51.744Z,33.97
2018-12-06T01:56:19.962Z,35.47
2018-12-06T01:58:48.104Z,36.63
2018-12-06T02:01:16.328Z,35.00
2018-12-06T02:03:45.396Z,35.27
2018-12-06T02:06:13.592Z,30.80
2018-12-06T02:08:41.780Z,38.57
2018-12-06T02:11:10.001Z,33.37
2018-12-06T02:13:38.249Z,33.57
2018-12-06T02:16:06.341Z,33.63
2018-12-06T02:18:34.644Z,35.87
2018-12-06T02:21:02.743Z,34.53
2018-12-06T02:23:30.984Z,35.60
2018-12-06T02:25:59.204Z,33.60
2018-12-06T02:28:27.368Z,33.43
2018-12-06T02:30:55.589Z,43.80
2018-12-06T02:33:23.789Z,33.77
2018-12-06T02:35:52.034Z,30.80
2018-12-06T02:38:20.133Z,33.30
2018-12-06T02:40:48.323Z,32.93
2018-12-06T02:43:16.486Z,37.50
2018-12-06T02:45:44.661Z,31.70
2018-12-06T02:48:12.801Z,40.17
2018-12-06T02:50:41.102Z,36.97
2018-12-06T02:53:09.367Z,32.57
2018-12-06T02:55:37.557Z,36.80
2018-12-06T02:58:05.764Z,41.50
2018-12-06T03:00:33.753Z,37.63
2018-12-06T03:03:01.934Z,32.47
2018-12-06T03:05:30.222Z,34.60
2018-12-06T03:07:58.369Z,35.10
2018-12-06T03:10:26.593Z,41.57
2018-12-06T03:12:54.480Z,33.37
2018-12-06T03:15:22.617Z,36.93
2018-12-06T03:17:50.922Z,33.67
2018-12-06T03:20:19.044Z,38.37
2018-12-06T03:22:47.262Z,33.10
2018-12-06T03:25:15.483Z,32.70
2018-12-06T03:27:43.701Z,41.73
2018-12-06T03:30:11.822Z,35.53
2018-12-06T03:32:39.883Z,36.13
2018-12-06T03:35:08.106Z,42.47
2018-12-06T03:37:36.282Z,42.47
2018-12-06T03:40:05.127Z,38.17
2018-12-06T03:42:33.341Z,40.30
2018-12-06T03:45:01.542Z,38.90
2018-12-06T03:47:29.705Z,38.23
2018-12-06T03:49:57.882Z,32.87
2018-12-06T03:52:26.045Z,34.43
2018-12-06T03:54:54.331Z,33.60
2018-12-06T03:57:22.467Z,36.50
2018-12-06T03:59:50.710Z,35.77
2018-12-06T04:02:19.100Z,31.80
2018-12-06T04:04:47.285Z,34.20
2018-12-06T04:07:15.444Z,33.47
2018-12-06T04:09:43.596Z,29.83
2018-12-06T04:12:11.866Z,31.37
2018-12-06T04:14:40.082Z,31.43
2018-12-06T04:17:08.202Z,37.90
2018-12-06T04:19:36.369Z,38.17
2018-12-06T04:22:04.525Z,38.33
2018-12-06T04:24:32.762Z,35.87
2018-12-06T04:27:00.970Z,32.07
2018-12-06T04:29:29.030Z,36.47
2018-12-06T04:31:57.008Z,38.03
2018-12-06T04:34:25.204Z,34.43
2018-12-06T04:36:53.506Z,29.47
2018-12-06T04:39:21.709Z,39.13
2018-12-06T04:41:49.917Z,34.33
2018-12-06T04:44:17.833Z,28.00
2018-12-06T04:46:45.939Z,29.30
2018-12-06T04:49:14.094Z,27.13
2018-12-06T04:51:42.371Z,30.27
2018-12-06T04:54:10.545Z,41.43
2018-12-06T04:56:38.823Z,40.73
2018-12-06T04:59:07.040Z,34.07
2018-12-06T05:01:35.191Z,47.17
2018-12-06T05:04:03.481Z,36.07
2018-12-06T05:06:31.530Z,53.87
2018-12-06T05:09:01.266Z,29.47
2018-12-06T05:11:29.698Z,39.73
2018-12-06T05:13:57.968Z,34.47
2018-12-06T05:16:26.186Z,31.57
2018-12-06T05:18:54.371Z,36.80
2018-12-06T05:21:22.557Z,36.70
2018-12-06T05:23:50.744Z,64.97
2018-12-06T05:26:18.893Z,61.67
2018-12-06T05:28:47.083Z,122.13
2018-12-06T05:31:15.504Z,53.20
2018-12-06T05:33:43.625Z,35.03
2018-12-06T05:36:11.769Z,31.50
2018-12-06T05:38:41.687Z,49.40
2018-12-06T05:41:10.132Z,44.37
2018-12-06T05:43:38.353Z,50.37
2018-12-06T05:46:06.576Z,47.03
2018-12-06T05:48:34.765Z,22.97
2018-12-06T05:51:02.652Z,23.90
2018-12-06T05:53:30.834Z,41.10
2018-12-06T05:55:58.963Z,56.83
2018-12-06T05:58:27.229Z,33.67
2018-12-06T06:00:55.281Z,32.50
2018-12-06T06:03:23.569Z,27.40
2018-12-06T06:05:51.788Z,29.40
2018-12-06T06:08:19.889Z,28.17
2018-12-06T06:10:48.509Z,22.53
2018-12-06T06:13:16.670Z,26.10
2018-12-06T06:15:44.972Z,25.50
2018-12-06T06:18:13.190Z,29.77
2018-12-06T06:20:41.409Z,27.30
2018-12-06T06:23:09.477Z,21.23
2018-12-06T06:25:37.535Z,24.43
2018-12-06T06:28:05.597Z,27.00
2018-12-06T06:30:33.811Z,28.10
2018-12-06T06:33:02.054Z,26.07
2018-12-06T06:35:30.273Z,30.83
2018-12-06T06:37:58.441Z,46.03
2018-12-06T06:40:26.668Z,51.37
2018-12-06T06:42:54.958Z,33.17
2018-12-06T06:45:23.125Z,58.13
2018-12-06T06:47:51.309Z,55.87
2018-12-06T06:50:19.547Z,40.23
2018-12-06T06:52:47.714Z,37.37
2018-12-06T06:55:16.135Z,25.87
2018-12-06T06:57:44.357Z,26.47
2018-12-06T07:00:43.466Z,24.33
2018-12-06T07:03:11.682Z,18.43
2018-12-06T07:05:39.983Z,19.47
2018-12-06T07:08:08.197Z,21.70
2018-12-06T07:10:36.304Z,17.80
2018-12-06T07:13:04.538Z,16.30
2018-12-06T07:15:32.686Z,21.13
2018-12-06T07:18:00.901Z,21.73
2018-12-06T07:20:29.145Z,24.93
2018-12-06T07:22:57.417Z,26.30
2018-12-06T07:25:25.676Z,34.67
2018-12-06T07:27:53.958Z,64.17
2018-12-06T07:30:22.105Z,29.60
2018-12-06T07:32:50.397Z,35.83
2018-12-06T07:35:18.637Z,23.00
2018-12-06T07:37:46.870Z,28.03
2018-12-06T07:40:15.078Z,25.13
2018-12-06T07:42:43.322Z,21.03
2018-12-06T07:45:11.516Z,18.67
2018-12-06T07:47:39.917Z,29.50
2018-12-06T07:50:08.237Z,20.67
2018-12-06T07:52:36.459Z,36.40
2018-12-06T07:55:04.826Z,27.30
2018-12-06T07:57:33.030Z,30.87
2018-12-06T08:00:01.319Z,26.70
2018-12-06T08:02:29.581Z,23.37
2018-12-06T08:04:57.778Z,22.13
2018-12-06T08:07:25.980Z,20.93
2018-12-06T08:09:54.147Z,25.87
2018-12-06T08:12:22.362Z,22.60
2018-12-06T08:14:50.557Z,18.33
2018-12-06T08:17:18.857Z,24.77
2018-12-06T08:19:47.105Z,27.47
2018-12-06T08:22:15.579Z,47.87
2018-12-06T08:24:43.767Z,21.20
2018-12-06T08:27:11.985Z,23.77
2018-12-06T08:29:40.205Z,28.80
2018-12-06T08:32:08.479Z,37.63
2018-12-06T08:34:36.725Z,20.33
2018-12-06T08:37:05.050Z,20.83
2018-12-06T08:39:33.292Z,20.03
2018-12-06T08:42:01.621Z,23.47
2018-12-06T08:44:29.804Z,15.07
2018-12-06T08:46:58.033Z,18.50
2018-12-06T08:49:26.376Z,25.37
2018-12-06T08:51:54.716Z,22.37
2018-12-06T08:54:22.961Z,24.10
2018-12-06T08:56:51.483Z,21.13
2018-12-06T08:59:19.765Z,21.87
2018-12-06T09:01:48.080Z,18.27
2018-12-06T09:04:16.349Z,24.57
2018-12-06T09:06:44.508Z,20.13
2018-12-06T09:09:12.728Z,34.13
2018-12-06T09:11:41.003Z,60.73
2018-12-06T09:14:09.254Z,34.37
2018-12-06T09:16:37.489Z,78.47
2018-12-06T09:19:05.697Z,138.30
2018-12-06T09:21:33.939Z,24.63
2018-12-06T09:24:02.028Z,17.87
2018-12-06T09:26:30.187Z,280.60
2018-12-06T09:28:58.449Z,27.57
2018-12-06T09:31:26.661Z,23.97
2018-12-06T09:34:00.046Z,22.63
2018-12-06T09:36:28.372Z,15.03
2018-12-06T09:38:56.642Z,34.73
2018-12-06T09:41:24.963Z,29.40
2018-12-06T09:43:53.116Z,44.73
2018-12-06T09:46:21.402Z,34.63
2018-12-06T09:48:49.670Z,24.23
2018-12-06T09:51:17.942Z,17.80
2018-12-06T09:53:46.094Z,13.57
2018-12-06T09:56:14.333Z,11.50
2018-12-06T09:58:42.601Z,12.37
2018-12-06T10:01:10.821Z,17.27
2018-12-06T10:03:39.001Z,14.57
2018-12-06T10:06:07.177Z,13.67
2018-12-06T10:08:35.409Z,14.03
2018-12-06T10:11:03.638Z,16.80
2018-12-06T10:13:31.922Z,26.57
2018-12-06T10:16:00.073Z,32.87
2018-12-06T10:18:28.049Z,60.60
2018-12-06T10:20:56.280Z,25.20
2018-12-06T10:23:24.358Z,19.23
2018-12-06T10:25:52.506Z,16.63
2018-12-06T10:28:20.686Z,16.83
2018-12-06T10:30:48.860Z,11.80
2018-12-06T10:33:17.079Z,11.03
2018-12-06T10:35:45.302Z,21.60
2018-12-06T10:38:13.521Z,13.13
2018-12-06T10:40:41.690Z,12.07
2018-12-06T10:43:09.841Z,15.47
2018-12-06T10:45:38.026Z,23.30
2018-12-06T10:48:06.300Z,25.60
2018-12-06T10:50:34.450Z,22.50
2018-12-06T10:53:02.623Z,17.47
2018-12-06T10:55:30.805Z,17.77
2018-12-06T10:57:59.078Z,40.23
2018-12-06T11:00:32.361Z,21.97
2018-12-06T11:03:05.801Z,21.43
2018-12-06T11:05:34.022Z,17.57
2018-12-06T11:08:02.299Z,17.97
2018-12-06T11:10:30.442Z,19.77
2018-12-06T11:12:58.736Z,14.03
2018-12-06T11:15:26.885Z,20.10
2018-12-06T11:17:55.117Z,15.60
2018-12-06T11:20:23.342Z,14.70
2018-12-06T11:22:51.557Z,14.87
2018-12-06T11:25:19.762Z,14.97
2018-12-06T11:27:48.005Z,26.70
2018-12-06T11:30:16.221Z,20.60
2018-12-06T11:32:44.496Z,15.20
2018-12-06T11:35:12.742Z,14.07
2018-12-06T11:37:41.004Z,15.80
2018-12-06T11:40:09.191Z,29.97
2018-12-06T11:42:37.521Z,14.60
2018-12-06T11:45:06.194Z,10.13
2018-12-06T11:47:34.405Z,19.67
2018-12-06T11:50:02.589Z,25.60
2018-12-06T11:52:30.643Z,19.63
2018-12-06T11:54:58.729Z,14.77
2018-12-06T11:57:26.964Z,13.27
2018-12-06T11:59:55.210Z,17.23
2018-12-06T12:02:23.421Z,11.10
2018-12-06T12:04:51.721Z,8.87
2018-12-06T12:07:19.883Z,9.23
2018-12-06T12:09:48.105Z,11.53
2018-12-06T12:12:16.324Z,13.00
2018-12-06T12:14:44.502Z,15.80
2018-12-06T12:17:12.669Z,15.93
2018-12-06T12:19:41.040Z,13.40
2018-12-06T12:22:09.261Z,22.17
2018-12-06T12:24:37.430Z,12.50
2018-12-06T12:27:05.581Z,14.93
2018-12-06T12:29:33.637Z,23.40
2018-12-06T12:32:01.721Z,19.53
2018-12-06T12:34:29.974Z,13.77
2018-12-06T12:36:58.125Z,11.77
2018-12-06T12:39:26.341Z,11.70
2018-12-06T12:41:54.561Z,11.93
2018-12-06T12:44:22.780Z,15.27
2018-12-06T12:46:51.006Z,17.17
2018-12-06T12:49:19.227Z,16.97
2018-12-06T12:51:47.340Z,9.10
2018-12-06T12:54:15.577Z,15.47
2018-12-06T12:56:43.656Z,21.03
2018-12-06T12:59:11.860Z,16.77
2018-12-06T13:01:40.036Z,19.90
2018-12-06T13:04:08.712Z,21.27
2018-12-06T13:06:36.863Z,15.10
2018-12-06T13:09:06.782Z,20.97
2018-12-06T13:11:35.061Z,14.93
2018-12-06T13:14:03.251Z,25.23
2018-12-06T13:16:31.721Z,30.43
2018-12-06T13:19:00.270Z,31.03
2018-12-06T13:21:28.441Z,24.93
2018-12-06T13:23:56.673Z,22.80
2018-12-06T13:26:24.780Z,25.17
2018-12-06T13:28:53.204Z,27.37
2018-12-06T13:31:21.377Z,25.90
2018-12-06T13:33:49.482Z,18.80
2018-12-06T13:36:17.760Z,25.77
2018-12-06T13:38:45.880Z,25.67
2018-12-06T13:41:14.099Z,23.53
2018-12-06T13:43:42.420Z,22.80
2018-12-06T13:46:10.774Z,25.10
2018-12-06T13:48:38.986Z,32.97
2018-12-06T13:51:07.113Z,32.00
2018-12-06T13:53:35.399Z,28.37
2018-12-06T13:56:03.577Z,23.90
2018-12-06T13:58:31.813Z,28.00
2018-12-06T14:01:00.262Z,30.40
2018-12-06T14:03:28.607Z,30.47
2018-12-06T14:05:56.716Z,30.97
2018-12-06T14:08:24.947Z,52.73
2018-12-06T14:10:53.178Z,33.17
2018-12-06T14:13:23.740Z,28.47
2018-12-06T14:15:51.642Z,29.77
2018-12-06T14:18:19.931Z,24.90
2018-12-06T14:20:47.893Z,24.53
2018-12-06T14:23:16.172Z,22.80
2018-12-06T14:25:44.392Z,24.97
2018-12-06T14:28:12.673Z,21.43
2018-12-06T14:30:40.931Z,23.60
2018-12-06T14:33:09.160Z,25.90
2018-12-06T14:35:37.261Z,19.57
2018-12-06T14:38:05.439Z,27.93
2018-12-06T14:40:33.711Z,48.80
2018-12-06T14:43:02.134Z,28.70
2018-12-06T14:45:30.410Z,16.67
2018-12-06T14:47:58.672Z,25.97
2018-12-06T14:50:26.792Z,45.53
2018-12-06T14:52:54.833Z,56.30
2018-12-06T14:55:23.048Z,80.67
2018-12-06T14:57:51.283Z,77.97
2018-12-06T15:00:19.572Z,61.77
2018-12-06T15:02:47.794Z,78.33
2018-12-06T15:05:16.012Z,112.00
2018-12-06T15:07:44.232Z,85.30
2018-12-06T15:10:12.402Z,58.93
2018-12-06T15:12:40.597Z,56.60
2018-12-06T15:15:08.937Z,59.83
2018-12-06T15:17:37.111Z,102.33
2018-12-06T15:20:05.309Z,112.33
2018-12-06T15:22:33.501Z,57.43
2018-12-06T15:25:01.871Z,55.20
2018-12-06T15:27:30.040Z,56.20
2018-12-06T15:29:58.412Z,58.07
2018-12-06T15:32:26.573Z,81.60
2018-12-06T15:34:54.809Z,92.40
2018-12-06T15:37:23.071Z,135.97
2018-12-06T15:39:51.109Z,113.63
2018-12-06T15:42:19.311Z,107.13
2018-12-06T15:44:47.376Z,134.00
2018-12-06T15:47:15.702Z,283.13
2018-12-06T15:49:43.890Z,158.33
2018-12-06T15:52:11.869Z,68.97
2018-12-06T15:54:39.934Z,67.00
2018-12-06T15:57:08.232Z,84.10
2018-12-06T15:59:36.449Z,73.33
2018-12-06T16:02:05.006Z,61.10
2018-12-06T16:04:33.267Z,70.50
2018-12-06T16:07:01.560Z,83.50
2018-12-06T16:09:29.776Z,88.63
2018-12-06T16:11:57.981Z,81.53
2018-12-06T16:14:26.189Z,59.07
2018-12-06T16:16:54.288Z,64.47
2018-12-06T16:19:22.957Z,83.77
2018-12-06T16:21:51.193Z,125.50
2018-12-06T16:24:19.459Z,126.20
2018-12-06T16:26:47.700Z,108.33
2018-12-06T16:29:15.995Z,118.57
2018-12-06T16:31:44.149Z,83.10
2018-12-06T16:34:14.125Z,54.57
2018-12-06T16:36:42.341Z,51.93
2018-12-06T16:39:10.638Z,77.57
2018-12-06T16:41:38.830Z,151.07
2018-12-06T16:44:07.117Z,135.50
2018-12-06T16:46:35.288Z,123.10
2018-12-06T16:49:09.929Z,148.40
2018-12-06T16:51:33.787Z,87.00
2018-12-06T16:54:01.929Z,57.97
2018-12-06T16:56:30.229Z,64.57
2018-12-06T16:58:58.393Z,153.73
2018-12-06T17:01:26.514Z,170.43
2018-12-06T17:03:54.784Z,149.07
2018-12-06T17:06:22.908Z,140.77
2018-12-06T17:08:51.074Z,223.47
2018-12-06T17:11:19.233Z,255.27
2018-12-06T17:13:47.509Z,209.00
2018-12-06T17:16:15.784Z,200.90
2018-12-06T17:18:44.004Z,185.67
2018-12-06T17:21:12.165Z,118.60
2018-12-06T17:23:40.389Z,94.17
2018-12-06T17:26:08.563Z,84.37
2018-12-06T17:28:36.730Z,116.70
2018-12-06T17:31:04.951Z,95.40
2018-12-06T17:33:33.169Z,87.67
2018-12-06T17:36:01.395Z,90.97
2018-12-06T17:38:29.498Z,100.87
2018-12-06T17:40:57.784Z,102.23
2018-12-06T17:43:25.941Z,98.70
2018-12-06T17:45:54.149Z,101.37
2018-12-06T17:48:30.883Z,90.33
2018-12-06T17:50:59.734Z,96.33
2018-12-06T17:53:28.348Z,90.23
2018-12-06T17:55:57.053Z,96.67
2018-12-06T17:58:25.317Z,102.80
2018-12-06T18:00:53.437Z,154.03
2018-12-06T18:03:21.658Z,136.63
2018-12-06T18:05:49.751Z,135.33
2018-12-06T18:08:17.891Z,148.23
2018-12-06T18:10:46.318Z,161.90
2018-12-06T18:13:14.489Z,136.10
2018-12-06T18:15:43.009Z,123.30
2018-12-06T18:18:11.330Z,115.93
2018-12-06T18:20:39.551Z,107.60
2018-12-06T18:23:07.730Z,98.70
2018-12-06T18:25:35.839Z,115.70
2018-12-06T18:28:04.045Z,139.87
2018-12-06T18:30:32.293Z,129.03
2018-12-06T18:33:00.553Z,108.00
2018-12-06T18:35:28.712Z,100.77
2018-12-06T18:37:56.939Z,75.30
2018-12-06T18:40:25.152Z,70.73
2018-12-06T18:42:53.216Z,68.50
2018-12-06T18:45:21.393Z,79.00
2018-12-06T18:47:49.718Z,86.50
2018-12-06T18:50:17.934Z,77.87
2018-12-06T18:52:46.207Z,79.40
2018-12-06T18:55:14.378Z,69.43
2018-12-06T18:57:42.560Z,82.30
2018-12-06T19:00:11.465Z,108.50
2018-12-06T19:02:39.608Z,110.00
2018-12-06T19:05:07.858Z,114.87
2018-12-06T19:07:36.102Z,128.57
2018-12-06T19:10:04.673Z,144.93
2018-12-06T19:12:32.972Z,146.50
2018-12-06T19:15:01.126Z,95.07
2018-12-06T19:17:29.466Z,88.73
2018-12-06T19:19:57.588Z,74.17
2018-12-06T19:22:25.807Z,67.73
2018-12-06T19:24:53.971Z,67.90
2018-12-06T19:27:22.143Z,63.07
2018-12-06T19:29:50.392Z,50.60
2018-12-06T19:32:18.582Z,85.03
2018-12-06T19:34:46.950Z,88.57
2018-12-06T19:37:15.026Z,101.40
2018-12-06T19:39:43.221Z,89.93
2018-12-06T19:42:11.357Z,81.63
2018-12-06T19:44:39.633Z,93.10
2018-12-06T19:47:07.751Z,92.17
2018-12-06T19:49:35.901Z,112.37
2018-12-06T19:52:04.123Z,127.77
2018-12-06T19:54:32.170Z,95.57
2018-12-06T19:57:00.353Z,112.77
2018-12-06T19:59:28.586Z,100.40
2018-12-06T20:01:56.660Z,85.80
2018-12-06T20:04:24.837Z,83.93
2018-12-06T20:06:52.958Z,74.40
2018-12-06T20:09:21.229Z,51.93
2018-12-06T20:11:49.402Z,61.00
2018-12-06T20:14:17.618Z,58.93
2018-12-06T20:16:45.889Z,60.70
2018-12-06T20:19:14.020Z,50.80
2018-12-06T20:21:42.349Z,41.80
2018-12-06T20:24:10.650Z,51.93
2018-12-06T20:26:38.697Z,47.48
2018-12-06T20:29:06.933Z,54.90
2018-12-06T20:31:35.209Z,68.80
2018-12-06T20:34:03.450Z,70.70
2018-12-06T20:36:31.704Z,104.67
2018-12-06T20:38:59.972Z,113.73
2018-12-06T20:41:28.237Z,147.37
2018-12-06T20:43:56.460Z,146.57
2018-12-06T20:46:24.729Z,116.87
2018-12-06T20:48:52.973Z,93.67
2018-12-06T20:51:21.270Z,90.15
2018-12-06T20:53:49.490Z,90.87
2018-12-06T20:56:17.658Z,60.20
2018-12-06T20:58:45.931Z,57.23
2018-12-06T21:01:14.013Z,75.33
2018-12-06T21:03:42.121Z,57.03
2018-12-06T21:06:10.335Z,59.43
2018-12-06T21:08:38.537Z,54.37
2018-12-06T21:11:06.746Z,68.70
2018-12-06T21:13:35.011Z,86.87
2018-12-06T21:16:03.155Z,97.23
2018-12-06T21:18:31.393Z,113.37
2018-12-06T21:20:59.608Z,104.77
2018-12-06T21:23:27.753Z,101.40
2018-12-06T21:25:55.839Z,95.23
2018-12-06T21:28:23.913Z,88.70
2018-12-06T21:30:52.187Z,104.43
2018-12-06T21:33:21.304Z,79.47
2018-12-06T21:35:49.750Z,93.93
2018-12-06T21:38:17.297Z,95.05
2018-12-06T21:40:45.571Z,86.53
2018-12-06T21:43:13.734Z,84.47
2018-12-06T21:45:41.926Z,57.60
2018-12-06T21:48:10.230Z,74.90
2018-12-06T21:50:38.300Z,73.12
2018-12-06T21:53:06.497Z,69.40
2018-12-06T21:55:34.677Z,68.70
2018-12-06T21:58:02.853Z,71.30
2018-12-06T22:00:31.129Z,56.63
2018-12-06T22:02:59.277Z,61.20
2018-12-06T22:05:27.485Z,73.25
2018-12-06T22:07:55.733Z,77.22
2018-12-06T22:10:23.959Z,72.75
2018-12-06T22:12:52.177Z,71.80
2018-12-06T22:15:20.398Z,77.45
2018-12-06T22:17:48.669Z,69.12
2018-12-06T22:20:16.813Z,61.70
2018-12-06T22:22:45.053Z,53.77
2018-12-06T22:25:13.328Z,54.85
2018-12-06T22:27:41.551Z,50.63
2018-12-06T22:30:11.635Z,50.63
2018-12-06T22:32:39.972Z,38.23
2018-12-06T22:35:08.161Z,37.80
2018-12-06T22:37:37.877Z,41.15
2018-12-06T22:40:06.505Z,46.55
2018-12-06T22:42:34.682Z,49.85
2018-12-06T22:45:07.852Z,46.28
2018-12-06T22:47:36.140Z,44.15
2018-12-06T22:50:04.517Z,46.20
2018-12-06T22:52:32.725Z,45.10
2018-12-06T22:55:00.922Z,44.65
2018-12-06T22:57:29.065Z,54.75
2018-12-06T22:59:57.281Z,55.40
2018-12-06T23:02:25.245Z,56.98
2018-12-06T23:04:53.325Z,66.55
2018-12-06T23:07:21.597Z,59.55
2018-12-06T23:09:49.818Z,70.72
2018-12-06T23:12:17.965Z,84.62
2018-12-06T23:14:46.041Z,78.83
2018-12-06T23:17:14.205Z,76.33
2018-12-06T23:19:42.417Z,83.90
2018-12-06T23:22:10.720Z,106.03
2018-12-06T23:24:39.040Z,78.05
2018-12-06T23:27:07.276Z,48.63
2018-12-06T23:29:35.525Z,44.45
2018-12-06T23:32:03.797Z,39.40
2018-12-06T23:34:31.966Z,52.25
2018-12-06T23:37:00.240Z,66.82
2018-12-06T23:39:28.226Z,83.23
2018-12-06T23:41:56.476Z,58.10
2018-12-06T23:44:24.798Z,42.80
2018-12-06T23:46:53.045Z,39.92
2018-12-06T23:49:21.186Z,34.90
2018-12-06T23:51:49.301Z,33.67
2018-12-06T23:54:17.476Z,30.12
2018-12-06T23:56:45.696Z,28.65
2018-12-06T23:59:14.015Z,31.85
